createdAt,value
2019-02-24T14:33:17.184Z,2.25
2019-02-24T14:39:24.269Z,1.85
2019-02-24T14:41:52.745Z,2.30
2019-02-24T14:44:21.214Z,2.60
2019-02-24T14:46:49.681Z,2.08
2019-02-24T14:49:18.216Z,2.30
2019-02-24T14:51:46.748Z,3.77
2019-02-24T14:54:15.243Z,2.70
2019-02-24T14:56:43.705Z,2.75
2019-02-24T14:59:12.174Z,2.62
2019-02-24T15:01:40.735Z,2.30
2019-02-24T15:04:09.447Z,2.67
2019-02-24T15:06:38.040Z,2.80
2019-02-24T15:09:07.086Z,2.25
2019-02-24T15:11:35.557Z,7.10
2019-02-24T15:14:04.185Z,22.10
2019-02-24T15:16:32.705Z,8.65
2019-02-24T15:19:01.317Z,5.20
2019-02-24T15:21:29.997Z,5.60
2019-02-24T15:23:58.556Z,6.95
2019-02-24T15:26:27.002Z,7.40
2019-02-24T15:28:55.469Z,5.47
2019-02-24T15:31:23.906Z,2.77
2019-02-24T15:33:52.322Z,3.15
2019-02-24T15:36:20.779Z,2.70
2019-02-24T15:38:49.242Z,3.95
2019-02-24T15:41:19.765Z,4.00
2019-02-24T15:43:47.895Z,3.60
2019-02-24T15:46:16.347Z,3.85
2019-02-24T15:48:44.872Z,3.50
2019-02-24T15:51:13.412Z,3.55
2019-02-24T15:53:41.851Z,5.90
2019-02-24T15:56:10.295Z,3.80
2019-02-24T15:58:38.733Z,3.37
2019-02-24T16:01:07.218Z,3.80
2019-02-24T16:03:36.234Z,3.30
2019-02-24T16:06:04.809Z,2.70
2019-02-24T16:08:33.311Z,2.90
2019-02-24T16:11:04.919Z,2.77
2019-02-24T16:13:33.470Z,2.62
2019-02-24T16:16:02.102Z,3.67
2019-02-24T16:18:30.719Z,3.70
2019-02-24T16:20:59.336Z,4.62
2019-02-24T16:23:27.797Z,4.00
2019-02-24T16:25:56.407Z,4.33
2019-02-24T16:28:24.919Z,3.52
2019-02-24T16:30:53.420Z,3.72
2019-02-24T16:33:21.958Z,4.30
2019-02-24T16:35:50.429Z,9.93
2019-02-24T16:38:18.986Z,8.90
2019-02-24T16:40:47.640Z,8.48
2019-02-24T16:43:16.281Z,7.05
2019-02-24T16:45:44.754Z,7.37
2019-02-24T16:48:13.232Z,7.03
2019-02-24T16:50:41.758Z,6.90
2019-02-24T16:53:10.251Z,11.05
2019-02-24T16:55:38.914Z,11.35
2019-02-24T16:58:07.445Z,7.15
2019-02-24T17:00:35.911Z,11.43
2019-02-24T17:03:04.587Z,14.60
2019-02-24T17:05:35.978Z,17.20
2019-02-24T17:08:04.537Z,14.40
2019-02-24T17:10:33.266Z,15.20
2019-02-24T17:13:02.043Z,16.30
2019-02-24T17:15:30.726Z,12.03
2019-02-24T17:17:59.362Z,10.58
2019-02-24T17:20:31.786Z,13.10
2019-02-24T17:23:00.308Z,27.02
2019-02-24T17:25:28.867Z,19.35
2019-02-24T17:27:57.392Z,10.85
2019-02-24T17:30:26.071Z,18.90
2019-02-24T17:32:54.616Z,33.23
2019-02-24T17:35:23.159Z,69.67
2019-02-24T17:37:51.741Z,28.42
2019-02-24T17:40:22.112Z,13.93
2019-02-24T17:42:50.654Z,27.65
2019-02-24T17:45:19.245Z,21.12
2019-02-24T17:47:47.880Z,21.25
2019-02-24T17:50:17.200Z,15.38
2019-02-24T17:52:46.091Z,14.70
2019-02-24T17:55:18.633Z,12.73
2019-02-24T17:57:47.312Z,9.23
2019-02-24T18:00:33.481Z,7.28
2019-02-24T18:03:01.915Z,5.87
2019-02-24T18:05:31.385Z,4.87
2019-02-24T18:07:59.973Z,4.95
2019-02-24T18:10:28.534Z,4.40
2019-02-24T18:12:56.995Z,3.98
2019-02-24T18:15:25.514Z,5.15
2019-02-24T18:17:53.996Z,3.95
2019-02-24T18:20:22.902Z,4.35
2019-02-24T18:22:51.399Z,5.87
2019-02-24T18:25:20.085Z,8.18
2019-02-24T18:27:48.579Z,8.20
2019-02-24T18:30:24.990Z,6.75
2019-02-24T18:32:53.475Z,6.50
2019-02-24T18:35:21.936Z,7.17
2019-02-24T18:37:50.598Z,6.12
2019-02-24T18:40:19.198Z,5.42
2019-02-24T18:42:47.832Z,5.80
2019-02-24T19:43:25.380Z,6.80
2019-02-24T19:45:53.843Z,7.45
2019-02-24T19:48:22.311Z,7.40
2019-02-24T19:50:50.829Z,7.37
2019-02-24T19:53:19.588Z,7.62
2019-02-24T19:55:48.189Z,8.05
2019-02-24T19:58:16.605Z,7.78
2019-02-24T20:00:45.256Z,8.38
2019-02-24T20:03:13.789Z,7.28
2019-02-24T20:05:42.328Z,7.37
2019-02-24T20:08:10.855Z,7.55
2019-02-24T20:10:39.493Z,6.42
2019-02-24T20:13:08.087Z,5.80
2019-02-24T20:15:36.564Z,5.83
2019-02-24T20:18:05.130Z,6.42
2019-02-24T20:20:33.638Z,5.83
2019-02-24T20:23:04.262Z,6.33
2019-02-24T20:25:32.469Z,6.83
2019-02-24T20:28:00.971Z,7.08
2019-02-24T20:30:31.185Z,7.40
2019-02-24T20:32:59.807Z,6.95
2019-02-24T20:35:28.364Z,9.85
2019-02-24T20:37:56.898Z,7.97
2019-02-24T20:40:25.611Z,7.08
2019-02-24T20:42:54.154Z,7.40
2019-02-24T20:45:23.651Z,7.28
2019-02-24T20:47:52.433Z,7.12
2019-02-24T20:50:32.441Z,6.65
2019-02-24T20:53:01.051Z,7.47
2019-02-24T20:55:29.633Z,6.83
2019-02-24T20:57:58.230Z,7.70
2019-02-24T21:00:32.648Z,6.75
2019-02-24T21:03:01.547Z,6.60
2019-02-24T21:05:30.640Z,6.78
2019-02-24T21:07:59.166Z,6.08
2019-02-24T21:10:27.739Z,6.47
2019-02-24T21:12:56.296Z,6.37
2019-02-24T21:15:24.756Z,6.05
2019-02-24T21:17:53.223Z,6.58
2019-02-24T21:20:24.513Z,7.95
2019-02-24T21:22:53.105Z,8.28
2019-02-24T21:25:21.693Z,7.67
2019-02-24T21:27:50.414Z,8.23
2019-02-24T21:30:20.922Z,7.45
2019-02-24T21:32:49.735Z,8.03
2019-02-24T21:35:18.405Z,7.83
2019-02-24T21:37:47.056Z,8.20
2019-02-24T21:40:17.668Z,8.68
2019-02-24T21:42:46.286Z,8.20
2019-02-24T21:45:23.745Z,6.75
2019-02-24T21:47:52.298Z,23.52
2019-02-24T21:50:21.155Z,18.07
2019-02-24T21:52:49.649Z,16.02
2019-02-24T21:55:18.325Z,10.23
2019-02-24T21:57:48.047Z,7.58
2019-02-24T22:00:23.912Z,7.25
2019-02-24T22:02:52.448Z,7.62
2019-02-24T22:05:21.092Z,8.28
2019-02-24T22:07:49.731Z,8.38
2019-02-24T22:10:18.283Z,7.90
2019-02-24T22:12:46.736Z,9.00
2019-02-24T22:15:23.316Z,9.45
2019-02-24T22:17:51.848Z,9.68
2019-02-24T22:20:20.425Z,10.68
2019-02-24T22:22:49.023Z,9.50
2019-02-24T22:25:17.761Z,8.88
2019-02-24T22:27:46.455Z,8.83
2019-02-24T22:30:21.998Z,8.10
2019-02-24T22:32:50.639Z,7.90
2019-02-24T22:35:19.223Z,7.08
2019-02-24T22:37:47.746Z,7.78
2019-02-24T22:40:17.261Z,8.95
2019-02-24T22:42:46.328Z,8.88
2019-02-24T22:45:19.282Z,8.95
2019-02-24T22:47:47.969Z,8.80
2019-02-24T22:50:16.704Z,9.25
2019-02-24T22:52:45.778Z,8.58
2019-02-24T22:55:18.469Z,8.93
2019-02-24T23:00:31.309Z,9.48
2019-02-24T23:02:59.954Z,9.80
2019-02-24T23:05:28.538Z,10.55
2019-02-24T23:07:57.116Z,9.80
2019-02-24T23:10:25.640Z,9.70
2019-02-24T23:12:54.329Z,8.88
2019-02-24T23:15:22.990Z,9.13
2019-02-24T23:17:51.450Z,9.38
2019-02-24T23:20:19.978Z,8.65
2019-02-24T23:22:48.516Z,8.00
2019-02-24T23:25:17.068Z,8.68
2019-02-24T23:27:45.594Z,8.68
2019-02-24T23:30:14.175Z,8.90
2019-02-24T23:32:42.713Z,8.15
2019-02-24T23:35:11.376Z,8.23
2019-02-24T23:37:39.881Z,8.20
2019-02-24T23:40:09.251Z,9.40
2019-02-24T23:42:37.701Z,9.43
2019-02-24T23:45:10.465Z,8.30
2019-02-24T23:50:11.750Z,8.53
2019-02-24T23:52:40.310Z,8.00
2019-02-24T23:55:10.065Z,8.53
2019-02-24T23:57:38.538Z,8.83
